Time;durP1;ratioP1;P1;durP2;ratioP2;P2;SDS_P1;SDS_P2;PMS_P1;PMS_P2;Temp;Humidity;BMP_temperature;BMP_pressure;BME280_temperature;BME280_humidity;BME280_pressure;Samples;Min_cycle;Max_cycle;Signal;HPM_P1;HPM_P2
2021/04/13 00:02:17;;;;;;;96.57;56.85;;;17.10;67.00;;;;;;5094826;28;20032;-63
2021/04/13 00:04:42;;;;;;;97.63;56.78;;;17.10;67.20;;;;;;5094752;28;20032;-64
2021/04/13 00:07:10;;;;;;;93.50;56.47;;;17.10;67.30;;;;;;5095241;28;20049;-63
2021/04/13 00:09:35;;;;;;;91.50;54.15;;;17.10;67.40;;;;;;5094539;28;20098;-63
2021/04/13 00:12:08;;;;;;;91.47;55.70;;;17.10;67.50;;;;;;5094663;28;20034;-64
2021/04/13 00:14:46;;;;;;;100.50;55.28;;;17.10;67.50;;;;;;5094636;28;20487;-64
2021/04/13 00:17:16;;;;;;;99.07;52.72;;;17.00;67.50;;;;;;5094428;28;20028;-64
2021/04/13 00:20:18;;;;;;;92.00;56.35;;;17.00;67.60;;;;;;5094277;28;20027;-64
2021/04/13 00:22:45;;;;;;;89.13;51.55;;;17.00;67.70;;;;;;5094418;28;20032;-64
2021/04/13 00:25:40;;;;;;;96.65;54.17;;;17.00;67.70;;;;;;5094433;28;20024;-63
2021/04/13 00:28:07;;;;;;;88.30;50.70;;;17.00;67.70;;;;;;5088959;28;20497;-63
2021/04/13 00:30:44;;;;;;;90.85;53.42;;;17.00;67.70;;;;;;5093951;28;20480;-63
2021/04/13 00:33:15;;;;;;;90.30;51.13;;;17.00;67.80;;;;;;5094491;28;20025;-63
2021/04/13 00:36:00;;;;;;;82.93;50.30;;;17.00;67.80;;;;;;5094261;28;20024;-63
2021/04/13 00:38:25;;;;;;;93.93;50.45;;;17.10;67.70;;;;;;5094266;28;20114;-64
2021/04/13 00:40:53;;;;;;;83.80;47.42;;;17.10;67.60;;;;;;5094028;28;20134;-63
2021/04/13 00:43:23;;;;;;;86.57;47.70;;;17.10;67.40;;;;;;5094374;28;20044;-64
2021/04/13 00:45:49;;;;;;;80.90;51.00;;;17.20;67.50;;;;;;5094383;28;20085;-64
2021/04/13 00:48:24;;;;;;;80.55;49.42;;;17.20;67.60;;;;;;5094092;28;20464;-63
2021/04/13 00:50:51;;;;;;;72.10;45.97;;;17.20;67.50;;;;;;5094053;28;20106;-64
2021/04/13 00:53:22;;;;;;;84.22;47.88;;;17.20;67.50;;;;;;5094086;28;20024;-63
2021/04/13 00:55:54;;;;;;;75.20;44.85;;;17.10;67.60;;;;;;5094235;28;20024;-63
2021/04/13 00:58:43;;;;;;;73.45;43.55;;;17.10;67.90;;;;;;5094197;28;20048;-64
2021/04/13 01:01:11;;;;;;;68.97;42.13;;;17.00;68.10;;;;;;5093799;28;20381;-64
2021/04/13 01:04:01;;;;;;;73.15;42.78;;;17.00;67.80;;;;;;5094040;28;20028;-63
2021/04/13 01:06:32;;;;;;;84.53;45.42;;;17.00;67.80;;;;;;5094274;28;20028;-64
2021/04/13 01:09:12;;;;;;;68.85;41.03;;;16.90;67.80;;;;;;5093928;28;20035;-63
2021/04/13 01:11:45;;;;;;;67.40;42.45;;;16.90;68.00;;;;;;5093883;28;20039;-64
2021/04/13 01:14:12;;;;;;;66.00;40.35;;;16.90;67.90;;;;;;5094007;28;20065;-64
2021/04/13 01:16:46;;;;;;;64.53;39.08;;;16.90;68.00;;;;;;5093694;28;20032;-63
2021/04/13 01:19:50;;;;;;;63.45;38.55;;;16.90;68.00;;;;;;5093854;28;20115;-63
2021/04/13 01:25:15;;;;;;;68.43;38.33;;;16.80;68.00;;;;;;5093781;28;20066;-63
2021/04/13 01:27:50;;;;;;;68.18;37.70;;;16.80;68.10;;;;;;5093503;28;20027;-64
2021/04/13 01:30:17;;;;;;;61.97;38.03;;;16.80;68.00;;;;;;5093710;28;20124;-63
2021/04/13 01:32:43;;;;;;;67.10;37.97;;;16.80;68.00;;;;;;5094017;28;20036;-63
2021/04/13 01:35:13;;;;;;;62.20;37.63;;;16.80;68.10;;;;;;5093564;28;20483;-63
2021/04/13 01:40:31;;;;;;;59.47;34.78;;;16.80;68.20;;;;;;5093273;28;20024;-63
2021/04/13 01:42:58;;;;;;;62.28;36.20;;;16.80;67.90;;;;;;5093873;28;20081;-64
2021/04/13 01:45:30;;;;;;;57.72;36.10;;;16.90;68.00;;;;;;5093218;28;20029;-64
2021/04/13 01:47:57;;;;;;;61.95;35.45;;;17.00;67.90;;;;;;5093709;28;20027;-64
2021/04/13 01:50:31;;;;;;;58.55;35.28;;;17.00;67.60;;;;;;5093565;28;20094;-64
2021/04/13 01:53:07;;;;;;;62.45;34.47;;;17.00;67.70;;;;;;5093425;28;20028;-64
2021/04/13 01:55:35;;;;;;;56.03;33.70;;;17.00;67.70;;;;;;5095885;28;20020;-63
2021/04/13 01:58:19;;;;;;;56.30;33.13;;;17.00;67.70;;;;;;5097245;28;20570;-63
2021/04/13 02:00:53;;;;;;;52.90;31.88;;;16.90;67.80;;;;;;5097478;28;20357;-63
2021/04/13 02:03:26;;;;;;;53.80;30.98;;;16.90;67.70;;;;;;5097027;28;20040;-64
2021/04/13 02:05:58;;;;;;;51.70;30.73;;;16.90;68.40;;;;;;5097171;28;20024;-64
2021/04/13 02:08:36;;;;;;;54.78;31.83;;;17.00;67.30;;;;;;5097410;28;20474;-63
2021/04/13 02:11:09;;;;;;;51.05;30.35;;;17.10;66.80;;;;;;5097052;28;20106;-63
2021/04/13 02:13:41;;;;;;;44.88;28.38;;;17.10;66.40;;;;;;5096958;28;20035;-63
2021/04/13 02:16:19;;;;;;;48.10;28.33;;;17.20;66.50;;;;;;5096952;28;20069;-63
2021/04/13 02:18:47;;;;;;;46.83;28.27;;;17.30;66.10;;;;;;5096874;28;20028;-63
2021/04/13 02:21:29;;;;;;;51.47;28.48;;;17.40;65.80;;;;;;5096728;28;20118;-63
2021/04/13 02:24:06;;;;;;;44.03;26.23;;;17.60;65.40;;;;;;5096927;28;20028;-63
2021/04/13 02:26:32;;;;;;;50.47;27.05;;;17.70;64.90;;;;;;5096790;28;20379;-64
2021/04/13 02:28:58;;;;;;;49.42;27.33;;;17.80;64.70;;;;;;5096253;28;20250;-64
2021/04/13 02:31:48;;;;;;;41.17;25.55;;;17.90;64.20;;;;;;5096692;28;20044;-63
2021/04/13 02:34:20;;;;;;;42.10;25.77;;;18.00;64.00;;;;;;5096943;28;20130;-63
2021/04/13 02:36:49;;;;;;;42.10;24.92;;;18.00;63.90;;;;;;5096439;28;20032;-64
2021/04/13 02:39:18;;;;;;;40.42;25.08;;;18.10;64.00;;;;;;5096240;28;20038;-63
2021/04/13 02:42:07;;;;;;;44.88;24.10;;;18.10;63.90;;;;;;5096410;28;20028;-63
2021/04/13 02:44:33;;;;;;;36.45;22.58;;;18.10;64.00;;;;;;5095682;28;20110;-63
2021/04/13 02:47:02;;;;;;;38.53;22.83;;;18.10;63.80;;;;;;5096254;28;20028;-64
2021/04/13 02:49:29;;;;;;;39.97;22.88;;;18.30;63.10;;;;;;5096283;28;20035;-64
2021/04/13 02:51:59;;;;;;;40.67;24.38;;;18.40;62.70;;;;;;5095018;28;20028;-63
2021/04/13 02:54:43;;;;;;;39.87;22.03;;;18.40;62.30;;;;;;5096622;28;20425;-63
2021/04/13 02:57:33;;;;;;;37.53;20.75;;;18.50;62.10;;;;;;5096278;28;20258;-64
2021/04/13 03:00:05;;;;;;;37.60;22.35;;;18.50;62.20;;;;;;5096226;28;20047;-64
2021/04/13 03:02:37;;;;;;;37.35;22.10;;;18.40;63.00;;;;;;5095942;28;20036;-64
2021/04/13 03:05:04;;;;;;;33.67;20.17;;;18.30;63.10;;;;;;5096084;28;20020;-63
2021/04/13 03:07:30;;;;;;;32.92;20.13;;;18.20;63.20;;;;;;5094937;28;20028;-63
2021/04/13 03:10:27;;;;;;;35.45;20.73;;;18.20;63.30;;;;;;5095862;28;20028;-64
2021/04/13 03:12:54;;;;;;;35.88;21.15;;;18.10;63.50;;;;;;5095364;28;20546;-63
2021/04/13 03:15:25;;;;;;;32.45;19.33;;;18.10;63.50;;;;;;5095691;28;20028;-64
2021/04/13 03:17:58;;;;;;;31.13;19.92;;;18.10;63.50;;;;;;5095811;28;20045;-64
2021/04/13 03:20:28;;;;;;;35.67;20.05;;;18.00;63.70;;;;;;5095448;28;20046;-64
2021/04/13 03:22:58;;;;;;;32.75;19.17;;;18.00;63.70;;;;;;5096198;28;20385;-64
2021/04/13 03:25:29;;;;;;;30.17;18.50;;;18.00;63.80;;;;;;5095710;28;20071;-64
2021/04/13 03:27:55;;;;;;;28.52;17.55;;;18.00;64.00;;;;;;5095614;28;20495;-63
2021/04/13 03:30:25;;;;;;;31.35;19.27;;;17.90;63.90;;;;;;5095636;28;20052;-64
2021/04/13 03:33:02;;;;;;;32.85;18.40;;;17.90;63.90;;;;;;5094162;28;20052;-64
2021/04/13 03:35:30;;;;;;;28.60;17.33;;;17.90;63.90;;;;;;5095488;28;20035;-63
2021/04/13 03:37:58;;;;;;;32.15;19.88;;;17.90;64.10;;;;;;5095277;28;20052;-63
2021/04/13 03:40:27;;;;;;;26.45;16.38;;;17.80;64.10;;;;;;5095353;28;20452;-63
2021/04/13 03:43:26;;;;;;;29.17;18.05;;;17.80;64.00;;;;;;5095268;28;20032;-63
2021/04/13 03:45:58;;;;;;;28.33;16.52;;;17.80;64.10;;;;;;5094831;28;20046;-63
2021/04/13 03:48:27;;;;;;;25.52;16.02;;;17.70;64.00;;;;;;5095110;28;20039;-63
2021/04/13 03:51:01;;;;;;;24.83;15.48;;;17.70;64.00;;;;;;5095314;28;20036;-64
2021/04/13 03:53:30;;;;;;;26.40;16.38;;;17.80;63.90;;;;;;5095019;28;20020;-63
2021/04/13 03:56:03;;;;;;;25.58;15.13;;;17.80;63.80;;;;;;5094767;28;20483;-64
2021/04/13 03:58:36;;;;;;;29.33;16.42;;;17.80;63.80;;;;;;5094871;28;20028;-63
2021/04/13 04:01:02;;;;;;;26.15;14.93;;;17.80;63.80;;;;;;5094733;28;20486;-64
2021/04/13 04:03:33;;;;;;;23.30;14.65;;;17.80;63.50;;;;;;5094750;28;20119;-63
2021/04/13 04:06:00;;;;;;;24.67;14.38;;;17.80;63.40;;;;;;5094897;28;20106;-64
2021/04/13 04:08:41;;;;;;;26.40;14.77;;;17.80;63.10;;;;;;5094740;28;20024;-63
2021/04/13 04:11:08;;;;;;;24.08;13.93;;;17.80;63.10;;;;;;5093416;28;20032;-63
2021/04/13 04:13:51;;;;;;;26.77;16.00;;;17.80;63.20;;;;;;5094956;28;20415;-64
2021/04/13 04:16:31;;;;;;;25.55;14.13;;;17.70;63.10;;;;;;5094305;28;20081;-64
2021/04/13 04:19:10;;;;;;;;;;;17.60;63.20;;;;;;5094456;28;20073;-64
2021/04/13 04:21:38;;;;;;;25.40;14.10;;;17.60;63.30;;;;;;5094617;28;19961;-63
2021/04/13 04:24:34;;;;;;;22.45;13.20;;;17.60;63.60;;;;;;5094406;28;20035;-63
2021/04/13 04:27:14;;;;;;;24.63;14.63;;;17.50;63.80;;;;;;5094425;28;20527;-63
2021/04/13 04:29:49;;;;;;;29.25;13.40;;;17.50;64.00;;;;;;5094429;28;20450;-63
2021/04/13 04:32:34;;;;;;;21.92;12.25;;;17.50;64.00;;;;;;5094609;28;20130;-63
2021/04/13 04:35:03;;;;;;;23.05;12.52;;;17.40;64.00;;;;;;5094450;28;20025;-63
2021/04/13 04:37:46;;;;;;;21.38;12.27;;;17.40;64.00;;;;;;5094205;28;20023;-63
2021/04/13 04:40:14;;;;;;;19.10;11.15;;;17.40;63.90;;;;;;5094176;28;20028;-63
2021/04/13 04:42:53;;;;;;;18.85;12.10;;;17.40;63.90;;;;;;5094033;28;20084;-64
2021/04/13 04:45:20;;;;;;;22.30;11.77;;;17.30;64.00;;;;;;5094115;28;20484;-63
2021/04/13 04:47:48;;;;;;;19.25;11.80;;;17.30;64.00;;;;;;5094077;28;20028;-65
2021/04/13 04:50:16;;;;;;;19.05;11.30;;;17.30;64.10;;;;;;5094043;28;20368;-63
2021/04/13 04:52:42;;;;;;;18.52;10.95;;;17.30;63.90;;;;;;5093920;28;20059;-63
2021/04/13 04:55:09;;;;;;;20.65;11.55;;;17.30;63.90;;;;;;5094464;28;20388;-63
2021/04/13 04:57:34;;;;;;;21.70;11.48;;;17.30;63.90;;;;;;5094109;28;20038;-63
2021/04/13 05:00:00;;;;;;;19.85;11.25;;;17.30;63.80;;;;;;5092771;28;20476;-63
2021/04/13 05:02:26;;;;;;;18.88;10.40;;;17.40;63.70;;;;;;5093740;28;20372;-63
2021/04/13 05:04:52;;;;;;;17.75;10.38;;;17.40;63.70;;;;;;5093957;28;20016;-63
2021/04/13 05:07:17;;;;;;;17.45;10.05;;;17.40;63.80;;;;;;5093865;28;20028;-63
2021/04/13 05:09:43;;;;;;;18.02;10.13;;;17.40;63.60;;;;;;5093902;28;20036;-63
2021/04/13 05:12:09;;;;;;;18.80;10.27;;;17.30;63.50;;;;;;5093753;28;20024;-63
2021/04/13 05:14:35;;;;;;;17.35;9.70;;;17.40;63.30;;;;;;5093943;28;20111;-64
2021/04/13 05:17:00;;;;;;;17.77;10.02;;;17.40;63.30;;;;;;5093680;28;20074;-63
2021/04/13 05:19:26;;;;;;;17.23;10.85;;;17.30;63.10;;;;;;5093826;28;20606;-63
2021/04/13 05:21:52;;;;;;;16.88;10.10;;;17.30;63.00;;;;;;5093474;28;20384;-63
2021/04/13 05:24:17;;;;;;;16.45;9.30;;;17.30;63.10;;;;;;5093721;28;20056;-63
2021/04/13 05:26:43;;;;;;;17.20;9.40;;;17.30;63.10;;;;;;5093664;28;20111;-63
2021/04/13 05:29:09;;;;;;;14.77;9.85;;;17.30;63.10;;;;;;5093877;28;20048;-63
2021/04/13 05:31:36;;;;;;;15.73;9.50;;;17.30;63.10;;;;;;5097836;28;20041;-63
2021/04/13 05:34:02;;;;;;;16.83;9.57;;;17.20;63.10;;;;;;5097722;28;20031;-63
2021/04/13 05:36:28;;;;;;;16.50;9.50;;;17.20;63.20;;;;;;5097923;28;20024;-63
2021/04/13 05:38:53;;;;;;;15.50;8.63;;;17.10;63.40;;;;;;5097573;28;20024;-63
2021/04/13 05:41:19;;;;;;;15.95;9.45;;;17.10;63.50;;;;;;5097639;28;20028;-63
2021/04/13 05:43:45;;;;;;;14.85;8.90;;;17.10;63.60;;;;;;5097532;28;20028;-63
2021/04/13 05:46:15;;;;;;;14.10;8.95;;;17.10;64.00;;;;;;5097491;28;20024;-63
2021/04/13 05:48:41;;;;;;;21.20;9.73;;;17.10;63.90;;;;;;5097335;28;20032;-63
2021/04/13 05:51:07;;;;;;;17.17;9.32;;;17.20;63.80;;;;;;5097645;28;20262;-63
2021/04/13 05:53:32;;;;;;;15.98;8.73;;;17.30;63.40;;;;;;5097375;28;20099;-63
2021/04/13 05:55:58;;;;;;;13.85;7.90;;;17.40;63.10;;;;;;5097352;28;20058;-62
2021/04/13 05:58:34;;;;;;;12.68;8.18;;;17.50;62.80;;;;;;5097207;28;20083;-61
2021/04/13 06:01:03;;;;;;;16.35;8.23;;;17.70;62.40;;;;;;5097176;28;20032;-63
2021/04/13 06:03:29;;;;;;;17.27;8.38;;;17.90;62.60;;;;;;5096952;28;20039;-67
2021/04/13 06:05:58;;;;;;;16.40;8.25;;;18.30;61.90;;;;;;5097187;28;20020;-69
2021/04/13 06:08:24;;;;;;;15.68;9.38;;;18.50;61.40;;;;;;5097152;28;20035;-68
2021/04/13 06:10:52;;;;;;;18.15;8.25;;;18.50;60.70;;;;;;5097021;28;20031;-66
2021/04/13 06:13:18;;;;;;;14.75;7.72;;;18.60;60.70;;;;;;5097033;28;20020;-66
2021/04/13 06:15:44;;;;;;;18.17;8.25;;;18.50;61.10;;;;;;5096824;28;20361;-68
2021/04/13 06:18:10;;;;;;;13.25;7.70;;;18.40;62.20;;;;;;5096654;28;20024;-62
2021/04/13 06:20:36;;;;;;;14.73;8.55;;;18.30;62.40;;;;;;5096941;28;20492;-61
2021/04/13 06:23:02;;;;;;;12.25;6.97;;;18.30;62.40;;;;;;5096921;28;20089;-61
2021/04/13 06:25:31;;;;;;;13.13;7.45;;;18.20;62.30;;;;;;5096775;28;20020;-64
2021/04/13 06:27:57;;;;;;;15.20;7.43;;;18.20;62.40;;;;;;5096585;28;20016;-63
2021/04/13 06:30:25;;;;;;;14.10;7.18;;;18.20;62.40;;;;;;5096438;28;20056;-63
2021/04/13 06:32:51;;;;;;;13.18;7.05;;;18.20;62.60;;;;;;5096537;28;20032;-63
2021/04/13 06:35:18;;;;;;;18.42;8.05;;;18.10;62.60;;;;;;5096509;28;20028;-63
2021/04/13 06:37:46;;;;;;;16.77;7.15;;;18.10;62.50;;;;;;5096498;28;20112;-63
2021/04/13 06:40:27;;;;;;;13.75;7.32;;;18.10;62.60;;;;;;5095932;28;20024;-63
2021/04/13 06:43:27;;;;;;;11.95;6.63;;;18.00;62.70;;;;;;5096323;28;20024;-63
2021/04/13 06:46:12;;;;;;;14.20;7.20;;;18.00;62.70;;;;;;5096434;28;20035;-63
2021/04/13 06:48:46;;;;;;;14.30;6.28;;;17.90;62.60;;;;;;5097001;28;20374;-62
2021/04/13 06:51:25;;;;;;;12.05;5.80;;;17.90;62.90;;;;;;5096214;28;20031;-64
2021/04/13 06:54:04;;;;;;;10.02;6.60;;;17.90;62.90;;;;;;5096453;28;20068;-64
2021/04/13 06:56:45;;;;;;;15.23;7.57;;;17.90;63.00;;;;;;5096234;28;20531;-64
2021/04/13 06:59:19;;;;;;;;;;;17.90;63.10;;;;;;5096840;28;20050;-63
2021/04/13 07:04:57;;;;;;;14.73;7.25;;;17.90;63.20;;;;;;5098259;28;20472;-66
2021/04/13 07:07:38;;;;;;;17.58;7.47;;;17.90;63.10;;;;;;5095862;28;20486;-65
2021/04/13 07:10:15;;;;;;;15.55;7.13;;;17.90;62.90;;;;;;5096079;28;20020;-64
2021/04/13 07:13:02;;;;;;;13.77;6.45;;;17.90;62.70;;;;;;5096121;28;20161;-65
2021/04/13 07:15:57;;;;;;;10.15;5.40;;;17.90;62.60;;;;;;5095725;28;20021;-66
2021/04/13 07:18:36;;;;;;;12.82;6.43;;;17.90;62.40;;;;;;5095232;28;20396;-65
2021/04/13 07:21:04;;;;;;;13.35;6.70;;;17.90;62.30;;;;;;5095647;28;20089;-65
2021/04/13 07:23:59;;;;;;;14.90;6.32;;;17.90;62.20;;;;;;5095649;28;20115;-66
2021/04/13 07:26:36;;;;;;;13.25;5.57;;;17.80;62.20;;;;;;5095378;28;20036;-65
2021/04/13 07:29:27;;;;;;;10.85;5.30;;;17.80;61.40;;;;;;5095263;28;20517;-70
2021/04/13 07:32:08;;;;;;;112.45;63.65;;;17.80;60.20;;;;;;5094732;28;20065;-66
2021/04/13 07:34:36;;;;;;;138.77;79.32;;;17.80;59.30;;;;;;5093312;28;20451;-65
2021/04/13 07:37:08;;;;;;;164.70;92.28;;;17.80;59.30;;;;;;5092237;28;20400;-66
2021/04/13 07:39:35;;;;;;;204.38;116.90;;;17.80;58.30;;;;;;5094774;28;20027;-63
2021/04/13 07:42:27;;;;;;;253.05;148.02;;;17.90;57.90;;;;;;5094964;28;20023;-64
2021/04/13 07:45:20;;;;;;;251.18;142.27;;;17.90;57.40;;;;;;5095203;28;20468;-66
2021/04/13 07:48:05;;;;;;;206.10;116.65;;;17.90;56.90;;;;;;5095054;28;20024;-66
2021/04/13 07:50:39;;;;;;;147.02;90.78;;;17.80;55.60;;;;;;5095208;28;20476;-66
2021/04/13 07:53:34;;;;;;;132.48;80.72;;;17.70;53.00;;;;;;5094466;28;20060;-65
2021/04/13 07:56:15;;;;;;;125.97;75.18;;;17.70;52.10;;;;;;5085207;28;20036;-66
2021/04/13 07:58:56;;;;;;;111.32;68.68;;;17.70;52.80;;;;;;5092173;28;20077;-66
2021/04/13 08:01:22;;;;;;;110.65;67.50;;;17.60;53.00;;;;;;5074025;28;20034;-66
2021/04/13 08:03:48;;;;;;;100.35;62.95;;;17.60;53.40;;;;;;5072903;28;20029;-66
2021/04/13 08:06:28;;;;;;;101.32;59.92;;;17.70;52.70;;;;;;5073048;28;20530;-65
2021/04/13 08:09:12;;;;;;;87.07;52.13;;;17.80;52.80;;;;;;5074279;28;20028;-65
2021/04/13 08:11:38;;;;;;;83.63;51.88;;;17.70;52.80;;;;;;5074147;28;20028;-65
2021/04/13 08:14:20;;;;;;;90.45;54.13;;;17.80;52.90;;;;;;5074569;28;20059;-65
2021/04/13 08:16:46;;;;;;;81.88;48.42;;;17.80;53.40;;;;;;5073388;28;20538;-65
2021/04/13 08:19:20;;;;;;;87.53;45.20;;;17.90;52.80;;;;;;5073416;28;20043;-65
2021/04/13 08:22:04;;;;;;;75.05;43.47;;;17.90;52.90;;;;;;5073256;28;20032;-65
2021/04/13 08:24:33;;;;;;;68.68;39.97;;;17.80;52.60;;;;;;5074207;28;20031;-65
2021/04/13 08:27:26;;;;;;;72.00;43.80;;;17.80;52.50;;;;;;5073976;28;20109;-65
2021/04/13 08:30:10;;;;;;;61.42;38.72;;;17.80;52.30;;;;;;5074038;28;20055;-64
2021/04/13 08:32:55;;;;;;;67.13;38.42;;;17.80;52.40;;;;;;5074300;28;20376;-63
2021/04/13 08:35:34;;;;;;;67.50;38.75;;;17.70;53.20;;;;;;5074105;28;20062;-65
2021/04/13 08:38:12;;;;;;;66.53;37.65;;;17.60;53.00;;;;;;5074082;28;20028;-65
2021/04/13 08:40:54;;;;;;;56.97;34.78;;;17.60;53.40;;;;;;5073860;28;20480;-66
2021/04/13 08:43:30;;;;;;;63.30;36.88;;;17.60;53.40;;;;;;5073930;28;20032;-63
2021/04/13 08:46:15;;;;;;;64.07;36.15;;;17.60;53.40;;;;;;5073905;28;20029;-65
2021/04/13 08:48:55;;;;;;;56.10;35.47;;;17.60;53.80;;;;;;5074048;28;20024;-63
2021/04/13 08:51:32;;;;;;;61.13;35.08;;;17.60;53.90;;;;;;5073862;28;20032;-65
2021/04/13 08:54:14;;;;;;;55.72;34.88;;;17.60;53.60;;;;;;5074085;28;20028;-64
2021/04/13 08:57:02;;;;;;;62.05;34.60;;;17.60;53.80;;;;;;5074236;28;20115;-65
2021/04/13 08:59:51;;;;;;;61.63;33.75;;;17.60;54.10;;;;;;5073875;28;20053;-63
2021/04/13 09:02:31;;;;;;;51.45;31.08;;;17.60;54.10;;;;;;5073634;28;20465;-65
2021/04/13 09:05:11;;;;;;;53.58;31.40;;;17.60;53.70;;;;;;5074131;28;20036;-65
2021/04/13 09:07:45;;;;;;;59.63;32.63;;;17.60;53.80;;;;;;5073521;28;20021;-66
2021/04/13 09:10:29;;;;;;;49.05;30.83;;;17.70;53.60;;;;;;5073715;28;20251;-64
2021/04/13 09:13:05;;;;;;;53.65;30.05;;;17.70;53.60;;;;;;5073888;28;20170;-63
2021/04/13 09:15:32;;;;;;;52.90;29.25;;;17.70;53.70;;;;;;5073402;28;20025;-64
2021/04/13 09:18:14;;;;;;;48.42;29.25;;;17.70;53.50;;;;;;5073526;28;20029;-67
2021/04/13 09:20:47;;;;;;;54.67;30.27;;;17.80;53.40;;;;;;5073973;28;20025;-65
2021/04/13 09:23:41;;;;;;;47.05;28.15;;;17.80;53.20;;;;;;5073562;28;20036;-63
2021/04/13 09:26:19;;;;;;;49.35;28.20;;;17.80;53.20;;;;;;5073628;28;20398;-65
2021/04/13 09:28:54;;;;;;;43.10;26.48;;;17.80;53.40;;;;;;5073766;28;20060;-65
2021/04/13 09:31:29;;;;;;;42.80;26.83;;;17.80;52.70;;;;;;5073815;28;20040;-65
2021/04/13 09:34:27;;;;;;;44.13;26.17;;;17.70;52.90;;;;;;5073436;28;20373;-65
2021/04/13 09:37:15;;;;;;;41.13;26.67;;;17.70;53.20;;;;;;5073084;28;20036;-65
2021/04/13 09:40:02;;;;;;;43.13;25.73;;;17.60;53.50;;;;;;5073377;28;20070;-65
2021/04/13 09:42:38;;;;;;;44.58;26.27;;;17.60;53.50;;;;;;5073633;28;20025;-64
2021/04/13 09:45:09;;;;;;;43.83;25.55;;;17.60;53.40;;;;;;5073668;28;20467;-65
2021/04/13 09:48:05;;;;;;;43.72;24.75;;;17.60;53.00;;;;;;5073914;28;20066;-65
2021/04/13 09:50:54;;;;;;;34.55;22.10;;;17.60;53.50;;;;;;5073284;28;20058;-65
2021/04/13 09:53:35;;;;;;;37.58;23.63;;;17.50;53.10;;;;;;5072668;28;20116;-66
2021/04/13 09:56:38;;;;;;;32.47;21.10;;;17.50;52.60;;;;;;5073447;28;20029;-65
2021/04/13 09:59:40;;;;;;;34.38;20.75;;;17.50;52.70;;;;;;5073203;28;20027;-65
2021/04/13 10:02:36;;;;;;;35.35;22.75;;;17.50;52.70;;;;;;5073417;28;20028;-65
2021/04/13 10:05:29;;;;;;;34.00;20.55;;;17.40;53.00;;;;;;5073256;28;20055;-64
2021/04/13 10:08:11;;;;;;;35.97;21.08;;;17.40;52.50;;;;;;5073108;28;20039;-65
2021/04/13 10:10:54;;;;;;;35.50;21.30;;;17.40;52.90;;;;;;5073633;28;20472;-65
2021/04/13 10:13:32;;;;;;;36.58;20.98;;;17.50;52.80;;;;;;5073154;28;20032;-65
2021/04/13 10:16:06;;;;;;;36.13;20.85;;;17.50;53.00;;;;;;5074306;28;20460;-65
2021/04/13 10:18:35;;;;;;;36.38;20.80;;;17.50;52.90;;;;;;5076785;28;20032;-65
2021/04/13 10:21:08;;;;;;;36.40;21.75;;;17.50;52.90;;;;;;5076675;28;20035;-65
2021/04/13 10:24:07;;;;;;;34.25;20.50;;;17.60;52.90;;;;;;5076737;28;20029;-65
2021/04/13 10:26:39;;;;;;;33.50;19.90;;;17.60;52.60;;;;;;5076591;28;20029;-65
2021/04/13 10:29:20;;;;;;;29.10;18.10;;;17.60;52.90;;;;;;5076682;28;20025;-65
2021/04/13 10:32:13;;;;;;;32.22;19.00;;;17.60;52.90;;;;;;5076593;28;20487;-65
2021/04/13 10:35:17;;;;;;;34.10;19.55;;;17.60;52.40;;;;;;5076753;28;20032;-65
2021/04/13 10:37:52;;;;;;;29.65;17.42;;;17.60;52.20;;;;;;5076353;28;20094;-65
2021/04/13 10:40:51;;;;;;;32.08;18.85;;;17.50;52.20;;;;;;5076239;28;20475;-65
2021/04/13 10:43:53;;;;;;;25.35;16.17;;;17.50;52.40;;;;;;5075977;28;20029;-65
2021/04/13 10:46:42;;;;;;;25.60;16.40;;;17.40;52.50;;;;;;5076213;28;20024;-65
2021/04/13 10:49:54;;;;;;;28.65;16.48;;;17.40;52.40;;;;;;5076146;28;20103;-65
2021/04/13 10:52:47;;;;;;;28.83;15.77;;;17.30;52.20;;;;;;5075031;28;20041;-65
2021/04/13 10:55:40;;;;;;;26.67;14.90;;;17.30;52.40;;;;;;5075940;28;20052;-64
2021/04/13 10:58:36;;;;;;;19.42;10.60;;;17.30;52.90;;;;;;5076137;28;20024;-64
2021/04/13 11:01:17;;;;;;;18.90;10.45;;;17.30;50.50;;;;;;5076332;28;20097;-63
2021/04/13 11:04:09;;;;;;;29.67;20.05;;;17.30;48.30;;;;;;5075918;28;20020;-62
2021/04/13 11:07:12;;;;;;;95.55;69.50;;;17.30;46.30;;;;;;5075927;28;20082;-61
2021/04/13 11:09:40;;;;;;;69.50;46.20;;;17.30;47.30;;;;;;5075699;28;20028;-61
2021/04/13 11:12:12;;;;;;;50.55;36.45;;;17.10;44.40;;;;;;5075698;28;20070;-62
2021/04/13 11:15:04;;;;;;;44.85;32.20;;;17.20;46.40;;;;;;5075642;28;20025;-62
2021/04/13 11:17:48;;;;;;;52.97;36.28;;;17.20;47.90;;;;;;5075504;28;20035;-61
2021/04/13 11:21:08;;;;;;;88.88;55.97;;;17.40;48.30;;;;;;5075483;28;20143;-61
2021/04/13 11:24:12;;;;;;;96.18;63.50;;;17.40;48.20;;;;;;5073214;28;20035;-60
2021/04/13 11:27:17;;;;;;;45.08;32.13;;;17.50;48.40;;;;;;5074812;28;20048;-63
2021/04/13 11:30:07;;;;;;;40.63;25.92;;;17.60;45.90;;;;;;5075369;28;20044;-66
2021/04/13 11:33:18;;;;;;;30.52;21.95;;;17.40;45.90;;;;;;5075591;28;20047;-65
2021/04/13 11:35:57;;;;;;;30.17;18.35;;;17.40;45.70;;;;;;5073955;28;20078;-66
2021/04/13 11:38:42;;;;;;;23.90;14.68;;;17.30;44.20;;;;;;5075498;28;20024;-65
2021/04/13 11:41:38;;;;;;;25.42;15.85;;;17.30;43.40;;;;;;5075423;28;20041;-63
2021/04/13 11:44:25;;;;;;;18.20;12.23;;;17.20;43.40;;;;;;5075403;28;20028;-62
2021/04/13 11:47:02;;;;;;;19.30;12.25;;;17.10;44.30;;;;;;5075275;28;20070;-65
2021/04/13 11:49:43;;;;;;;17.23;10.05;;;17.10;43.80;;;;;;5074862;28;20017;-62
2021/04/13 11:52:35;;;;;;;14.82;9.25;;;17.00;43.30;;;;;;5074817;28;20468;-65
2021/04/13 11:55:01;;;;;;;106.85;68.80;;;16.90;43.20;;;;;;5085098;28;20024;-64
2021/04/13 11:57:32;;;;;;;148.43;85.28;;;16.80;42.00;;;;;;5095310;28;20043;-65
2021/04/13 12:00:10;;;;;;;142.13;91.13;;;16.70;40.80;;;;;;5095340;28;20024;-66
2021/04/13 12:02:44;;;;;;;241.05;149.27;;;16.70;42.20;;;;;;5094639;28;20040;-66
2021/04/13 12:05:32;;;;;;;178.98;118.13;;;16.70;43.70;;;;;;5094751;28;20106;-66
2021/04/13 12:07:58;;;;;;;154.18;99.80;;;16.80;43.30;;;;;;5094966;28;20031;-66
2021/04/13 12:10:27;;;;;;;146.75;90.75;;;16.80;44.30;;;;;;5094412;28;20460;-67
2021/04/13 12:12:54;;;;;;;123.68;79.65;;;16.80;45.30;;;;;;5094296;28;20036;-67
2021/04/13 12:15:19;;;;;;;105.25;69.57;;;16.80;45.90;;;;;;5093897;28;20432;-67
2021/04/13 12:17:46;;;;;;;91.57;58.17;;;16.80;46.70;;;;;;5094524;28;20084;-66
2021/04/13 12:20:27;;;;;;;98.78;61.10;;;16.90;47.10;;;;;;5094525;28;20031;-66
2021/04/13 12:23:04;;;;;;;85.05;54.70;;;16.90;47.40;;;;;;5094570;28;20051;-66
2021/04/13 12:25:45;;;;;;;81.85;52.53;;;17.00;47.40;;;;;;5094998;28;20028;-67
2021/04/13 12:28:34;;;;;;;;;;;17.00;47.30;;;;;;5095285;28;20024;-66
2021/04/13 12:31:05;;;;;;;73.85;47.65;;;17.10;47.50;;;;;;5076449;28;19920;-66
2021/04/13 12:33:31;;;;;;;78.50;48.53;;;17.10;48.20;;;;;;5074433;28;20036;-67
2021/04/13 12:36:03;;;;;;;69.28;46.17;;;17.10;48.60;;;;;;5074255;28;20413;-67
2021/04/13 12:38:45;;;;;;;71.65;45.75;;;17.10;49.00;;;;;;5074628;28;20068;-67
2021/04/13 12:41:25;;;;;;;70.47;44.58;;;17.10;49.20;;;;;;5074145;28;20044;-66
2021/04/13 12:43:52;;;;;;;65.97;42.83;;;17.00;49.40;;;;;;5074256;28;20021;-66
2021/04/13 12:46:36;;;;;;;67.55;42.85;;;17.00;49.40;;;;;;5074268;28;20028;-67
2021/04/13 12:49:12;;;;;;;64.70;42.90;;;17.00;49.50;;;;;;5074515;28;20425;-66
2021/04/13 12:51:55;;;;;;;67.63;43.47;;;17.00;49.80;;;;;;5073976;28;20033;-66
2021/04/13 12:54:34;;;;;;;61.10;41.30;;;17.00;49.90;;;;;;5073606;28;20082;-67
2021/04/13 12:57:03;;;;;;;65.18;40.05;;;16.90;49.90;;;;;;5073626;28;20020;-67
2021/04/13 12:59:29;;;;;;;61.63;40.13;;;16.90;50.10;;;;;;5073810;28;20029;-66
2021/04/13 13:01:56;;;;;;;60.50;38.35;;;16.90;50.00;;;;;;5073769;28;20475;-66
2021/04/13 13:04:43;;;;;;;58.60;39.58;;;16.90;50.30;;;;;;5073697;28;20060;-66
2021/04/13 13:07:21;;;;;;;61.08;38.08;;;16.80;50.10;;;;;;5073666;28;20419;-66
2021/04/13 13:09:47;;;;;;;56.05;38.55;;;16.80;50.10;;;;;;5073728;28;20030;-66
2021/04/13 13:12:25;;;;;;;60.30;39.30;;;16.80;50.30;;;;;;5073672;28;20028;-66
2021/04/13 13:15:01;;;;;;;55.45;36.85;;;16.80;50.50;;;;;;5073684;28;20075;-66
2021/04/13 13:17:50;;;;;;;57.42;37.33;;;16.80;50.80;;;;;;5073557;28;20033;-66
2021/04/13 13:20:30;;;;;;;56.22;36.75;;;16.80;50.70;;;;;;5073468;28;20461;-66
2021/04/13 13:22:56;;;;;;;57.85;35.00;;;16.80;51.40;;;;;;5073428;28;20354;-66
2021/04/13 13:25:28;;;;;;;56.15;36.35;;;16.80;51.20;;;;;;5073594;28;20029;-66